Time;durP1;ratioP1;P1;durP2;ratioP2;P2;SDS_P1;SDS_P2;PMS_P1;PMS_P2;Temp;Humidity;BMP_temperature;BMP_pressure;BME280_temperature;BME280_humidity;BME280_pressure;Samples;Min_cycle;Max_cycle;Signal;HPM_P1;HPM_P2
2024/01/13 00:00:21;;;;;;;36.53;18.03;;;;;;;;;;5115877;27;20297;-81
2024/01/13 00:02:48;;;;;;;31.53;17.77;;;;;;;;;;5115416;28;20222;-81
2024/01/13 00:05:16;;;;;;;32.70;17.03;;;;;;;;;;5115057;28;20942;-81
2024/01/13 00:07:44;;;;;;;34.50;18.53;;;;;;;;;;5115618;28;20189;-80
2024/01/13 00:10:11;;;;;;;27.90;15.47;;;;;;;;;;5115454;28;20328;-81
2024/01/13 00:12:38;;;;;;;29.07;15.77;;;;;;;;;;5115079;28;20316;-81
2024/01/13 00:15:06;;;;;;;29.53;15.63;;;;;;;;;;5114940;28;20676;-81
2024/01/13 00:17:33;;;;;;;33.77;16.07;;;;;;;;;;5114720;28;20633;-80
2024/01/13 00:20:00;;;;;;;33.30;16.73;;;;;;;;;;5114823;28;20205;-81
2024/01/13 00:22:27;;;;;;;34.57;16.57;;;;;;;;;;5114923;28;20704;-81
2024/01/13 00:24:56;;;;;;;34.43;17.13;;;;;;;;;;5115000;28;20276;-81
2024/01/13 00:27:23;;;;;;;31.67;16.27;;;;;;;;;;5114783;28;20572;-81
2024/01/13 00:29:51;;;;;;;30.70;16.60;;;;;;;;;;5115059;27;20264;-82
2024/01/13 00:32:18;;;;;;;31.20;15.70;;;;;;;;;;5114349;28;20194;-81
2024/01/13 00:34:45;;;;;;;28.10;14.33;;;;;;;;;;5115255;28;20206;-82
2024/01/13 00:37:12;;;;;;;27.30;15.17;;;;;;;;;;5114287;28;20201;-82
2024/01/13 00:39:39;;;;;;;29.33;15.07;;;;;;;;;;5115039;27;20728;-82
2024/01/13 00:42:08;;;;;;;30.40;14.37;;;;;;;;;;5114652;27;20634;-81
2024/01/13 00:44:35;;;;;;;27.33;14.27;;;;;;;;;;5115264;28;20244;-81
2024/01/13 00:47:02;;;;;;;29.03;15.37;;;;;;;;;;5113982;28;20278;-82
2024/01/13 00:49:30;;;;;;;27.67;14.70;;;;;;;;;;5114723;28;20745;-81
2024/01/13 00:51:57;;;;;;;31.50;14.77;;;;;;;;;;5114463;28;20208;-81
2024/01/13 00:54:24;;;;;;;32.60;15.60;;;;;;;;;;5113214;28;20196;-81
2024/01/13 00:56:52;;;;;;;30.60;15.07;;;;;;;;;;5114678;28;20287;-81
2024/01/13 00:59:21;;;;;;;32.63;15.97;;;;;;;;;;5114258;28;20630;-80
2024/01/13 01:01:48;;;;;;;30.27;15.07;;;;;;;;;;5114589;28;20301;-81
2024/01/13 01:04:15;;;;;;;27.60;14.43;;;;;;;;;;5113874;28;20288;-81
2024/01/13 01:06:42;;;;;;;29.73;14.73;;;;;;;;;;5113968;28;20753;-81
2024/01/13 01:09:10;;;;;;;30.10;14.67;;;;;;;;;;5113539;28;20308;-82
2024/01/13 01:11:37;;;;;;;29.07;14.13;;;;;;;;;;5114161;28;20273;-81
2024/01/13 01:14:04;;;;;;;28.53;14.53;;;;;;;;;;5114464;28;20249;-80
2024/01/13 01:16:33;;;;;;;25.27;13.80;;;;;;;;;;5114076;28;20222;-81
2024/01/13 01:19:00;;;;;;;33.33;14.77;;;;;;;;;;5113964;28;20251;-81
2024/01/13 01:21:28;;;;;;;26.40;13.30;;;;;;;;;;5113770;28;20200;-81
2024/01/13 01:23:55;;;;;;;30.20;14.20;;;;;;;;;;5113783;28;20281;-81
2024/01/13 01:26:22;;;;;;;30.07;15.00;;;;;;;;;;5114128;28;20207;-81
2024/01/13 01:28:49;;;;;;;30.83;13.77;;;;;;;;;;5114332;28;20225;-80
2024/01/13 01:31:16;;;;;;;31.87;14.93;;;;;;;;;;5113929;28;20238;-81
2024/01/13 01:33:45;;;;;;;31.93;14.47;;;;;;;;;;5114020;28;20193;-81
2024/01/13 01:36:12;;;;;;;33.33;15.17;;;;;;;;;;5107780;28;20289;-81
2024/01/13 01:38:39;;;;;;;29.07;14.30;;;;;;;;;;5093295;28;20693;-80
2024/01/13 01:41:07;;;;;;;33.60;15.20;;;;;;;;;;5093285;28;20228;-80
2024/01/13 01:43:34;;;;;;;32.57;14.60;;;;;;;;;;5093385;28;20204;-81
2024/01/13 01:46:02;;;;;;;34.00;15.37;;;;;;;;;;5092962;28;20289;-81
2024/01/13 01:48:31;;;;;;;32.93;15.17;;;;;;;;;;5092931;28;20226;-81
2024/01/13 01:51:00;;;;;;;29.80;14.37;;;;;;;;;;5092842;28;20731;-81
2024/01/13 01:53:28;;;;;;;28.83;15.07;;;;;;;;;;5092910;28;20285;-82
2024/01/13 01:55:55;;;;;;;29.03;14.03;;;;;;;;;;5093383;28;20197;-81
2024/01/13 01:58:22;;;;;;;29.43;14.07;;;;;;;;;;5092963;28;20222;-81
2024/01/13 02:00:50;;;;;;;27.57;14.77;;;;;;;;;;5092745;28;20205;-81
2024/01/13 02:03:18;;;;;;;28.50;14.67;;;;;;;;;;5092803;28;20296;-81
2024/01/13 02:05:45;;;;;;;27.07;13.73;;;;;;;;;;5092591;28;20628;-80
2024/01/13 02:08:14;;;;;;;29.13;14.13;;;;;;;;;;5093077;28;20542;-81
2024/01/13 02:10:42;;;;;;;27.33;14.53;;;;;;;;;;5092492;28;20328;-80
2024/01/13 02:13:09;;;;;;;27.63;14.57;;;;;;;;;;5092321;28;20226;-80
2024/01/13 02:15:36;;;;;;;28.67;14.27;;;;;;;;;;5092163;28;20202;-82
2024/01/13 02:18:03;;;;;;;26.60;13.83;;;;;;;;;;5092030;28;20237;-81
2024/01/13 02:20:31;;;;;;;26.60;13.97;;;;;;;;;;5092574;28;20331;-79
2024/01/13 02:22:59;;;;;;;27.77;14.40;;;;;;;;;;5092491;28;20230;-80
2024/01/13 02:25:26;;;;;;;30.67;14.30;;;;;;;;;;5092572;28;20217;-81
2024/01/13 02:27:53;;;;;;;30.83;13.73;;;;;;;;;;5092061;28;20280;-81
2024/01/13 02:30:21;;;;;;;26.00;13.83;;;;;;;;;;5092139;28;20341;-81
2024/01/13 02:32:48;;;;;;;29.87;14.53;;;;;;;;;;5095452;28;20287;-80
2024/01/13 02:35:15;;;;;;;25.57;14.47;;;;;;;;;;5100684;28;20292;-80
2024/01/13 02:37:41;;;;;;;27.53;13.73;;;;;;;;;;5111165;28;20308;-81
2024/01/13 02:40:10;;;;;;;27.83;14.20;;;;;;;;;;5112269;28;20228;-80
2024/01/13 02:42:38;;;;;;;29.50;13.60;;;;;;;;;;5111938;28;20204;-81
2024/01/13 02:45:05;;;;;;;28.90;14.50;;;;;;;;;;5112855;28;20291;-81
2024/01/13 02:47:35;;;;;;;30.40;15.03;;;;;;;;;;5112392;28;20225;-81
2024/01/13 02:50:02;;;;;;;27.30;13.70;;;;;;;;;;5112489;28;20234;-81
2024/01/13 02:52:30;;;;;;;28.40;14.13;;;;;;;;;;5112617;28;20285;-80
2024/01/13 02:54:57;;;;;;;29.67;15.30;;;;;;;;;;5112281;28;20197;-81
2024/01/13 02:57:26;;;;;;;29.23;13.77;;;;;;;;;;5111738;28;20280;-80
2024/01/13 02:59:53;;;;;;;30.27;14.50;;;;;;;;;;5111766;28;20190;-81
2024/01/13 03:02:20;;;;;;;30.27;15.30;;;;;;;;;;5112621;28;20280;-81
2024/01/13 03:04:47;;;;;;;27.87;14.33;;;;;;;;;;5112337;28;20204;-81
2024/01/13 03:07:15;;;;;;;31.20;15.37;;;;;;;;;;5112087;28;20645;-81
2024/01/13 03:09:42;;;;;;;31.07;15.47;;;;;;;;;;5111587;28;20308;-80
2024/01/13 03:12:09;;;;;;;31.53;15.43;;;;;;;;;;5111649;28;20320;-82
2024/01/13 03:14:38;;;;;;;29.13;14.87;;;;;;;;;;5112124;28;20292;-81
2024/01/13 03:17:05;;;;;;;30.63;14.80;;;;;;;;;;5111549;28;20216;-81
2024/01/13 03:19:32;;;;;;;32.27;15.20;;;;;;;;;;5111774;28;20358;-81
2024/01/13 03:22:00;;;;;;;26.23;14.07;;;;;;;;;;5111829;28;20290;-81
2024/01/13 03:24:27;;;;;;;28.67;14.17;;;;;;;;;;5111829;28;20197;-81
2024/01/13 03:26:54;;;;;;;29.47;14.10;;;;;;;;;;5106152;28;20292;-80
2024/01/13 03:29:21;;;;;;;27.50;14.33;;;;;;;;;;5103431;28;20211;-80
2024/01/13 03:31:50;;;;;;;30.17;13.77;;;;;;;;;;5111821;28;20293;-81
2024/01/13 03:34:17;;;;;;;25.30;14.67;;;;;;;;;;5111551;28;20201;-81
2024/01/13 03:36:45;;;;;;;29.87;14.03;;;;;;;;;;5111363;28;20288;-81
2024/01/13 03:39:12;;;;;;;28.50;14.53;;;;;;;;;;5111338;28;20193;-81
2024/01/13 03:41:39;;;;;;;30.20;13.93;;;;;;;;;;5111571;28;20198;-80
2024/01/13 03:44:06;;;;;;;30.07;13.80;;;;;;;;;;5112153;28;20231;-81
2024/01/13 03:46:34;;;;;;;31.60;15.27;;;;;;;;;;5111643;28;20228;-82
2024/01/13 03:49:02;;;;;;;32.90;15.23;;;;;;;;;;5111128;28;20206;-81
2024/01/13 03:51:29;;;;;;;30.33;15.23;;;;;;;;;;5111532;28;20260;-81
2024/01/13 03:53:56;;;;;;;35.27;15.73;;;;;;;;;;5111846;28;20220;-80
2024/01/13 03:56:24;;;;;;;32.47;14.93;;;;;;;;;;5111206;28;20317;-81
2024/01/13 03:58:51;;;;;;;31.60;14.70;;;;;;;;;;5111421;28;20204;-80
2024/01/13 04:01:18;;;;;;;29.90;14.60;;;;;;;;;;5111400;28;20445;-80
2024/01/13 04:03:45;;;;;;;33.37;14.90;;;;;;;;;;5111493;28;20198;-80
2024/01/13 04:06:14;;;;;;;32.33;14.43;;;;;;;;;;5111796;28;20296;-81
2024/01/13 04:08:41;;;;;;;32.27;14.17;;;;;;;;;;5111390;28;20221;-81
2024/01/13 04:11:08;;;;;;;32.17;15.37;;;;;;;;;;5111135;28;20316;-80
2024/01/13 04:13:35;;;;;;;30.37;14.40;;;;;;;;;;5111781;28;20232;-80
2024/01/13 04:16:02;;;;;;;35.10;15.47;;;;;;;;;;5111227;28;20604;-81
2024/01/13 04:18:29;;;;;;;37.10;16.17;;;;;;;;;;5111152;28;20557;-81
2024/01/13 04:20:56;;;;;;;34.00;15.30;;;;;;;;;;5111643;28;20607;-81
2024/01/13 04:23:25;;;;;;;33.63;15.10;;;;;;;;;;5111108;28;20203;-81
2024/01/13 04:25:52;;;;;;;32.93;14.87;;;;;;;;;;5110760;28;20228;-81
2024/01/13 04:28:19;;;;;;;31.87;14.63;;;;;;;;;;5112510;28;20235;-80
2024/01/13 04:30:46;;;;;;;35.73;15.87;;;;;;;;;;5114925;28;20224;-82
2024/01/13 04:33:13;;;;;;;33.37;14.83;;;;;;;;;;5114901;28;20284;-80
2024/01/13 04:35:41;;;;;;;36.83;15.30;;;;;;;;;;5115484;28;20230;-81
2024/01/13 04:38:08;;;;;;;30.50;14.27;;;;;;;;;;5115167;28;20203;-82
2024/01/13 04:40:37;;;;;;;33.93;15.13;;;;;;;;;;5114572;28;20240;-81
2024/01/13 04:43:05;;;;;;;34.77;15.50;;;;;;;;;;5114895;28;20201;-80
2024/01/13 04:45:32;;;;;;;32.17;15.10;;;;;;;;;;5114803;28;20196;-81
2024/01/13 04:47:59;;;;;;;38.90;16.13;;;;;;;;;;5114812;28;20199;-82
2024/01/13 04:50:26;;;;;;;32.43;14.13;;;;;;;;;;5114676;28;20221;-80
2024/01/13 04:52:53;;;;;;;34.80;15.47;;;;;;;;;;5114394;28;20561;-81
2024/01/13 04:55:21;;;;;;;33.27;15.07;;;;;;;;;;5114581;28;20224;-81
2024/01/13 04:57:49;;;;;;;34.00;14.93;;;;;;;;;;5114925;28;20281;-81
2024/01/13 05:00:17;;;;;;;31.33;14.17;;;;;;;;;;5114199;28;20644;-81
2024/01/13 05:02:44;;;;;;;32.77;15.00;;;;;;;;;;5114327;27;20201;-81
2024/01/13 05:05:12;;;;;;;34.57;14.70;;;;;;;;;;5114086;28;20245;-81
2024/01/13 05:07:39;;;;;;;36.63;15.17;;;;;;;;;;5114021;28;20200;-82
2024/01/13 05:10:07;;;;;;;33.93;14.60;;;;;;;;;;5114019;28;20706;-81
2024/01/13 05:12:34;;;;;;;32.70;15.07;;;;;;;;;;5114508;28;20253;-82
2024/01/13 05:15:03;;;;;;;35.90;14.90;;;;;;;;;;5114167;28;20660;-81
2024/01/13 05:17:30;;;;;;;32.30;14.33;;;;;;;;;;5113674;28;20720;-81
2024/01/13 05:19:58;;;;;;;29.37;13.83;;;;;;;;;;5114359;28;20229;-81
2024/01/13 05:22:25;;;;;;;34.33;14.87;;;;;;;;;;5113600;28;20205;-82
2024/01/13 05:24:52;;;;;;;31.47;14.70;;;;;;;;;;5114597;28;20287;-82
2024/01/13 05:27:19;;;;;;;30.23;13.60;;;;;;;;;;5112727;28;20283;-81
2024/01/13 05:29:46;;;;;;;32.50;14.93;;;;;;;;;;5113903;28;20231;-82
2024/01/13 05:32:15;;;;;;;29.83;14.00;;;;;;;;;;5114098;28;20333;-81
2024/01/13 05:34:42;;;;;;;33.03;13.93;;;;;;;;;;5113301;27;20297;-81
2024/01/13 05:37:09;;;;;;;35.97;17.77;;;;;;;;;;5113216;28;20665;-81
2024/01/13 05:39:36;;;;;;;36.33;17.00;;;;;;;;;;5112974;28;20682;-80
2024/01/13 05:42:04;;;;;;;46.20;17.23;;;;;;;;;;5113900;28;20247;-82
2024/01/13 05:44:31;;;;;;;38.47;16.00;;;;;;;;;;5113707;28;20197;-81
2024/01/13 05:46:58;;;;;;;42.10;17.00;;;;;;;;;;5113690;28;20296;-81
2024/01/13 05:49:27;;;;;;;44.53;17.87;;;;;;;;;;5113615;28;20287;-83
2024/01/13 05:51:54;;;;;;;39.50;15.50;;;;;;;;;;5112829;28;20235;-82
2024/01/13 05:54:21;;;;;;;44.27;17.53;;;;;;;;;;5113576;28;20284;-81
2024/01/13 05:56:48;;;;;;;42.77;16.87;;;;;;;;;;5113636;28;20219;-81
2024/01/13 05:59:15;;;;;;;48.80;16.93;;;;;;;;;;5113042;28;20284;-82
2024/01/13 06:01:42;;;;;;;43.97;17.70;;;;;;;;;;5113451;28;20283;-81
2024/01/13 06:04:10;;;;;;;44.00;17.23;;;;;;;;;;5113134;28;20323;-81
2024/01/13 06:06:38;;;;;;;45.90;17.13;;;;;;;;;;5112666;28;20283;-82
2024/01/13 06:09:06;;;;;;;43.77;17.07;;;;;;;;;;5113567;28;20292;-81
2024/01/13 06:11:33;;;;;;;43.77;17.63;;;;;;;;;;5113123;28;20315;-81
2024/01/13 06:14:00;;;;;;;38.40;16.17;;;;;;;;;;5112497;27;20224;-82
2024/01/13 06:16:27;;;;;;;41.57;15.97;;;;;;;;;;5112869;28;20220;-81
2024/01/13 06:18:55;;;;;;;41.60;16.50;;;;;;;;;;5113445;28;20594;-81
2024/01/13 06:21:22;;;;;;;46.53;16.23;;;;;;;;;;5112745;28;20282;-82
2024/01/13 06:23:51;;;;;;;40.23;15.80;;;;;;;;;;5112831;28;20609;-81
2024/01/13 06:26:18;;;;;;;36.97;15.03;;;;;;;;;;5112914;28;20659;-81
2024/01/13 06:28:45;;;;;;;35.07;14.00;;;;;;;;;;5113040;28;20641;-81
2024/01/13 06:31:13;;;;;;;39.87;14.43;;;;;;;;;;5110862;28;20233;-82
2024/01/13 06:33:40;;;;;;;39.07;15.70;;;;;;;;;;5112401;28;20201;-82
2024/01/13 06:36:07;;;;;;;41.23;15.87;;;;;;;;;;5111737;28;20285;-82
2024/01/13 06:38:34;;;;;;;35.90;14.53;;;;;;;;;;5112942;28;20220;-80
2024/01/13 06:41:03;;;;;;;36.80;15.17;;;;;;;;;;5112029;28;20720;-82
2024/01/13 06:43:30;;;;;;;41.53;14.63;;;;;;;;;;5112680;28;20287;-81
2024/01/13 06:45:57;;;;;;;39.70;15.53;;;;;;;;;;5112098;28;20203;-80
2024/01/13 06:48:25;;;;;;;38.90;14.97;;;;;;;;;;5112478;28;20265;-81
2024/01/13 06:50:52;;;;;;;34.90;14.87;;;;;;;;;;5111493;28;20220;-82
2024/01/13 06:53:19;;;;;;;37.53;14.43;;;;;;;;;;5112060;28;20287;-82
2024/01/13 06:55:46;;;;;;;37.63;15.60;;;;;;;;;;5112630;28;20207;-81
2024/01/13 06:58:14;;;;;;;35.63;15.20;;;;;;;;;;5111983;28;20279;-82
2024/01/13 07:00:42;;;;;;;39.57;15.77;;;;;;;;;;5111654;28;20215;-81
2024/01/13 07:03:09;;;;;;;40.70;15.60;;;;;;;;;;5112089;28;20290;-81
2024/01/13 07:05:37;;;;;;;34.43;14.07;;;;;;;;;;5111619;28;20278;-81
2024/01/13 07:08:06;;;;;;;34.23;14.63;;;;;;;;;;5112064;28;20207;-82
2024/01/13 07:10:34;;;;;;;32.27;13.57;;;;;;;;;;5112290;27;20194;-82
2024/01/13 07:13:01;;;;;;;30.63;13.30;;;;;;;;;;5111664;28;20584;-82
2024/01/13 07:15:30;;;;;;;39.63;14.70;;;;;;;;;;5111839;28;20203;-82
2024/01/13 07:17:58;;;;;;;48.00;16.50;;;;;;;;;;5111421;28;20197;-81
2024/01/13 07:20:26;;;;;;;42.00;16.10;;;;;;;;;;5111990;28;20560;-81
2024/01/13 07:22:53;;;;;;;45.90;15.20;;;;;;;;;;5112255;28;20200;-82
2024/01/13 07:25:20;;;;;;;36.27;14.70;;;;;;;;;;5111872;28;20234;-82
2024/01/13 07:27:47;;;;;;;39.53;13.40;;;;;;;;;;5111629;28;20256;-82
2024/01/13 07:30:15;;;;;;;38.27;14.50;;;;;;;;;;5111292;28;20256;-81
2024/01/13 07:32:45;;;;;;;44.40;15.57;;;;;;;;;;5111251;28;20647;-80
2024/01/13 07:35:12;;;;;;;40.67;15.07;;;;;;;;;;5111521;28;20201;-81
2024/01/13 07:37:39;;;;;;;41.10;15.80;;;;;;;;;;5111466;28;20282;-81
2024/01/13 07:40:07;;;;;;;33.03;13.10;;;;;;;;;;5111357;28;20305;-80
2024/01/13 07:42:34;;;;;;;36.43;14.77;;;;;;;;;;5111491;28;20235;-82
2024/01/13 07:45:02;;;;;;;42.57;16.83;;;;;;;;;;5111953;28;20287;-91
2024/01/13 07:47:29;;;;;;;50.27;18.17;;;;;;;;;;5114137;28;20214;-91
2024/01/13 07:49:58;;;;;;;49.80;18.47;;;;;;;;;;5113977;28;20194;-92
2024/01/13 07:52:25;;;;;;;45.70;17.33;;;;;;;;;;5113920;28;20648;-92
2024/01/13 07:54:52;;;;;;;41.87;15.93;;;;;;;;;;5113995;28;20258;-91
2024/01/13 07:57:19;;;;;;;38.80;14.80;;;;;;;;;;5113994;28;20202;-92
2024/01/13 07:59:47;;;;;;;44.60;14.90;;;;;;;;;;5113840;28;20195;-90
2024/01/13 08:02:15;;;;;;;41.57;14.73;;;;;;;;;;5113809;28;20204;-92
2024/01/13 08:04:43;;;;;;;49.60;15.87;;;;;;;;;;5118127;28;20232;-90
2024/01/13 08:07:12;;;;;;;45.13;14.70;;;;;;;;;;5118354;28;20197;-91
2024/01/13 08:09:40;;;;;;;55.53;16.10;;;;;;;;;;5117681;28;20283;-91
2024/01/13 08:12:07;;;;;;;44.47;15.37;;;;;;;;;;5117522;28;20357;-92
2024/01/13 08:14:35;;;;;;;42.97;15.30;;;;;;;;;;5117877;28;20194;-91
2024/01/13 08:17:02;;;;;;;44.50;14.87;;;;;;;;;;5117516;28;20673;-90
2024/01/13 08:19:29;;;;;;;43.73;14.10;;;;;;;;;;5117801;27;20200;-90
2024/01/13 08:21:56;;;;;;;40.47;14.00;;;;;;;;;;5117805;28;20195;-91
2024/01/13 08:24:25;;;;;;;45.20;15.70;;;;;;;;;;5117539;28;20199;-91
2024/01/13 08:26:54;;;;;;;44.70;15.30;;;;;;;;;;5117322;28;20190;-91
2024/01/13 08:29:21;;;;;;;48.87;15.57;;;;;;;;;;5117505;28;20203;-91
2024/01/13 08:31:50;;;;;;;43.07;14.97;;;;;;;;;;5116860;28;20228;-91
2024/01/13 08:34:17;;;;;;;55.60;22.67;;;;;;;;;;5117595;28;20274;-90
2024/01/13 08:36:45;;;;;;;38.77;14.87;;;;;;;;;;5117181;28;20210;-89
2024/01/13 08:39:12;;;;;;;43.33;18.67;;;;;;;;;;5117537;28;20240;-91
2024/01/13 08:41:41;;;;;;;67.83;27.20;;;;;;;;;;5117222;28;20534;-91
2024/01/13 08:44:08;;;;;;;55.30;22.73;;;;;;;;;;5117552;28;20207;-90
2024/01/13 08:46:35;;;;;;;64.47;26.10;;;;;;;;;;5117100;28;20208;-91
2024/01/13 08:49:04;;;;;;;48.30;22.23;;;;;;;;;;5116953;28;20193;-92
2024/01/13 08:51:31;;;;;;;42.90;19.60;;;;;;;;;;5116894;28;20234;-90
2024/01/13 08:53:59;;;;;;;45.07;16.60;;;;;;;;;;5116903;28;20203;-90
2024/01/13 08:56:26;;;;;;;43.67;18.77;;;;;;;;;;5117261;28;20200;-90
2024/01/13 08:58:55;;;;;;;39.23;17.17;;;;;;;;;;5117061;28;20827;-90
2024/01/13 09:01:22;;;;;;;60.30;27.13;;;;;;;;;;5116377;28;20660;-92
2024/01/13 09:03:49;;;;;;;61.43;25.77;;;;;;;;;;5113060;28;20240;-83
2024/01/13 09:06:16;;;;;;;54.77;22.17;;;;;;;;;;5114310;28;20751;-83
2024/01/13 09:08:44;;;;;;;54.33;20.37;;;;;;;;;;5114343;28;20220;-81
2024/01/13 09:11:11;;;;;;;48.33;18.83;;;;;;;;;;5114447;28;20652;-84
2024/01/13 09:13:42;;;;;;;53.50;22.20;;;;;;;;;;5099563;28;20603;-84
2024/01/13 09:16:34;;;;;;;58.60;24.17;;;;;;;;;;5093392;28;20277;-87
2024/01/13 09:19:29;;;;;;;45.13;16.23;;;;;;;;;;5095310;28;20228;-87
2024/01/13 09:22:24;;;;;;;;;;;;;;;;;;;;;
2024/01/13 09:24:52;;;;;;;39.33;15.47;;;;;;;;;;5110243;27;20208;-83
2024/01/13 09:27:20;;;;;;;33.83;15.47;;;;;;;;;;5111641;28;20208;-84
2024/01/13 09:29:47;;;;;;;47.37;20.83;;;;;;;;;;5111199;28;20212;-83
2024/01/13 09:32:14;;;;;;;48.40;19.90;;;;;;;;;;5098591;27;20264;-84
2024/01/13 09:34:41;;;;;;;36.60;15.33;;;;;;;;;;5113682;28;20226;-85
2024/01/13 09:37:30;;;;;;;45.27;19.87;;;;;;;;;;5109422;28;20296;-85
2024/01/13 09:39:58;;;;;;;55.90;21.27;;;;;;;;;;5110102;28;20199;-85
2024/01/13 09:42:29;;;;;;;189.83;83.77;;;;;;;;;;5112397;28;20203;-85
2024/01/13 09:44:56;;;;;;;296.83;141.30;;;;;;;;;;5113835;28;20231;-85
2024/01/13 09:47:23;;;;;;;315.70;159.07;;;;;;;;;;5113788;28;20196;-85
2024/01/13 09:50:04;;;;;;;63.70;32.30;;;;;;;;;;5114018;28;20277;-85
2024/01/13 09:52:51;;;;;;;104.13;43.47;;;;;;;;;;5100728;27;20240;-84
2024/01/13 09:55:20;;;;;;;53.43;20.40;;;;;;;;;;5111313;28;20234;-94
2024/01/13 09:58:23;;;;;;;53.57;23.30;;;;;;;;;;5094828;28;20221;-92
2024/01/13 10:00:53;;;;;;;44.07;18.33;;;;;;;;;;5099935;28;20197;-93
2024/01/13 10:03:20;;;;;;;43.70;18.70;;;;;;;;;;5115564;28;20280;-94
2024/01/13 10:05:49;;;;;;;42.40;18.60;;;;;;;;;;5115430;28;20608;-94
2024/01/13 10:08:16;;;;;;;50.17;23.03;;;;;;;;;;5115461;28;20200;-94
2024/01/13 10:10:46;;;;;;;48.93;21.93;;;;;;;;;;5115961;28;20249;-94
2024/01/13 10:13:13;;;;;;;56.00;24.90;;;;;;;;;;5114632;28;20283;-94
2024/01/13 10:15:40;;;;;;;44.80;17.73;;;;;;;;;;5111882;28;20231;-94
2024/01/13 10:18:08;;;;;;;44.53;17.87;;;;;;;;;;5114807;28;20622;-93
2024/01/13 10:20:35;;;;;;;43.73;15.57;;;;;;;;;;5104027;28;20223;-94
2024/01/13 10:23:02;;;;;;;46.93;18.53;;;;;;;;;;5117494;27;20618;-94
2024/01/13 10:25:30;;;;;;;52.40;19.37;;;;;;;;;;5115020;28;20194;-94
2024/01/13 10:27:58;;;;;;;57.57;22.13;;;;;;;;;;5114251;28;20331;-94
2024/01/13 10:30:26;;;;;;;49.47;20.30;;;;;;;;;;5111637;28;20193;-93
2024/01/13 10:32:53;;;;;;;40.93;17.20;;;;;;;;;;5114845;27;20780;-93
2024/01/13 10:35:22;;;;;;;34.87;14.40;;;;;;;;;;5109681;28;20233;-92
2024/01/13 10:37:49;;;;;;;30.67;13.50;;;;;;;;;;5094601;28;20201;-85
2024/01/13 10:40:16;;;;;;;26.53;11.83;;;;;;;;;;5093340;28;20208;-83
2024/01/13 10:42:46;;;;;;;28.10;12.00;;;;;;;;;;5108247;28;20204;-85
2024/01/13 10:45:16;;;;;;;30.73;13.83;;;;;;;;;;5107059;28;20721;-88
2024/01/13 10:47:45;;;;;;;27.63;12.40;;;;;;;;;;5109012;28;20753;-90
2024/01/13 10:50:13;;;;;;;30.97;13.77;;;;;;;;;;5109153;27;20217;-94
2024/01/13 10:52:44;;;;;;;41.77;19.93;;;;;;;;;;5103982;27;20321;-92
2024/01/13 10:55:12;;;;;;;34.77;16.33;;;;;;;;;;5112913;28;20247;-92
2024/01/13 10:57:39;;;;;;;45.60;16.33;;;;;;;;;;5112991;28;20202;-90
2024/01/13 11:00:10;;;;;;;37.80;16.00;;;;;;;;;;5111527;28;20626;-92
2024/01/13 11:02:40;;;;;;;41.57;17.63;;;;;;;;;;5125792;27;20256;-92
2024/01/13 11:05:08;;;;;;;39.07;17.63;;;;;;;;;;5131487;27;20204;-90
2024/01/13 11:07:41;;;;;;;47.90;21.80;;;;;;;;;;5121685;27;20250;-88
2024/01/13 11:10:11;;;;;;;39.70;16.17;;;;;;;;;;5129435;27;20194;-90
2024/01/13 11:12:40;;;;;;;38.67;18.13;;;;;;;;;;5113572;28;20231;-91
2024/01/13 11:15:11;;;;;;;59.70;28.10;;;;;;;;;;5107844;28;20247;-93
2024/01/13 11:17:49;;;;;;;36.63;16.83;;;;;;;;;;5099869;28;20204;-93
2024/01/13 11:20:18;;;;;;;62.10;29.63;;;;;;;;;;5117574;27;20207;-93
2024/01/13 11:22:57;;;;;;;37.53;17.47;;;;;;;;;;5124212;27;20206;-93
2024/01/13 11:25:27;;;;;;;50.60;29.43;;;;;;;;;;5095372;28;20198;-93
2024/01/13 11:28:02;;;;;;;36.83;18.20;;;;;;;;;;5109924;28;20203;-93
2024/01/13 11:30:30;;;;;;;32.53;13.87;;;;;;;;;;5106245;28;20600;-90
2024/01/13 11:32:59;;;;;;;35.13;14.77;;;;;;;;;;5109053;28;20291;-92
2024/01/13 11:35:27;;;;;;;33.13;14.77;;;;;;;;;;5102896;28;20756;-94
2024/01/13 11:37:55;;;;;;;32.67;14.50;;;;;;;;;;5092975;28;20260;-90
2024/01/13 11:40:23;;;;;;;29.13;12.73;;;;;;;;;;5093423;28;20212;-94
2024/01/13 11:42:59;;;;;;;39.57;17.67;;;;;;;;;;5094996;28;20198;-95
2024/01/13 11:45:35;;;;;;;35.63;15.90;;;;;;;;;;5096014;28;20232;-95
2024/01/13 11:48:17;;;;;;;32.63;13.97;;;;;;;;;;5094990;28;20209;-95
2024/01/13 11:50:50;;;;;;;34.10;14.47;;;;;;;;;;5094649;28;20241;-95
2024/01/13 11:53:36;;;;;;;35.30;15.63;;;;;;;;;;5094954;28;20328;-91
2024/01/13 11:56:05;;;;;;;32.73;13.60;;;;;;;;;;5105852;28;20203;-87
2024/01/13 11:58:32;;;;;;;37.50;18.73;;;;;;;;;;5112897;28;20645;-87
2024/01/13 12:01:00;;;;;;;36.37;14.30;;;;;;;;;;5112670;28;20235;-88
2024/01/13 12:03:27;;;;;;;36.60;15.13;;;;;;;;;;5112212;28;20207;-86
2024/01/13 12:05:56;;;;;;;34.17;14.67;;;;;;;;;;5092718;28;20206;-87
2024/01/13 12:08:26;;;;;;;32.90;13.83;;;;;;;;;;5092668;28;20236;-91
2024/01/13 12:10:53;;;;;;;35.20;16.17;;;;;;;;;;5093403;28;20757;-91
2024/01/13 12:13:24;;;;;;;31.33;12.70;;;;;;;;;;5106968;28;20240;-89
2024/01/13 12:15:51;;;;;;;35.13;14.70;;;;;;;;;;5110219;28;20254;-91
2024/01/13 12:18:20;;;;;;;33.67;15.20;;;;;;;;;;5115323;28;20724;-92
2024/01/13 12:20:48;;;;;;;37.47;16.83;;;;;;;;;;5117204;28;20235;-91
2024/01/13 12:23:18;;;;;;;38.13;17.53;;;;;;;;;;5115495;28;20270;-91
2024/01/13 12:25:45;;;;;;;33.83;15.17;;;;;;;;;;5121383;28;20203;-90
2024/01/13 12:28:13;;;;;;;39.63;17.27;;;;;;;;;;5121709;28;20258;-91
2024/01/13 12:30:40;;;;;;;39.17;16.43;;;;;;;;;;5124213;28;20248;-90
2024/01/13 12:33:10;;;;;;;44.53;17.87;;;;;;;;;;5129727;28;20268;-91
2024/01/13 12:35:37;;;;;;;40.30;16.43;;;;;;;;;;5125130;28;20200;-92
2024/01/13 12:38:06;;;;;;;38.30;16.17;;;;;;;;;;5123186;28;20724;-91
2024/01/13 12:40:35;;;;;;;36.50;15.80;;;;;;;;;;5129864;28;20201;-92
2024/01/13 12:43:03;;;;;;;38.00;16.70;;;;;;;;;;5115706;28;20246;-84
2024/01/13 12:45:32;;;;;;;44.20;18.47;;;;;;;;;;5116417;28;20606;-84
2024/01/13 12:47:59;;;;;;;47.27;19.73;;;;;;;;;;5119728;28;20295;-85
2024/01/13 12:50:27;;;;;;;44.77;18.80;;;;;;;;;;5121124;27;20872;-84
2024/01/13 12:52:57;;;;;;;49.43;19.40;;;;;;;;;;5124535;27;20209;-84
2024/01/13 12:55:25;;;;;;;42.70;17.57;;;;;;;;;;5123134;27;20692;-84
2024/01/13 12:57:54;;;;;;;41.33;16.40;;;;;;;;;;5123292;27;20254;-84
2024/01/13 13:00:22;;;;;;;37.97;15.80;;;;;;;;;;5119206;27;20287;-85
2024/01/13 13:02:51;;;;;;;41.20;16.00;;;;;;;;;;5113377;28;20230;-85
2024/01/13 13:05:19;;;;;;;80.63;45.33;;;;;;;;;;5107579;28;20198;-83
2024/01/13 13:07:46;;;;;;;44.20;23.57;;;;;;;;;;5109571;28;20204;-83
2024/01/13 13:10:14;;;;;;;46.20;18.23;;;;;;;;;;5115040;28;20217;-85
2024/01/13 13:12:42;;;;;;;39.70;16.83;;;;;;;;;;5114450;28;20243;-85
2024/01/13 13:15:12;;;;;;;42.10;17.50;;;;;;;;;;5114621;28;20276;-85
2024/01/13 13:17:39;;;;;;;39.50;16.43;;;;;;;;;;5115038;28;20657;-85
2024/01/13 13:20:07;;;;;;;39.87;16.63;;;;;;;;;;5114577;28;20204;-85
2024/01/13 13:22:37;;;;;;;37.00;15.23;;;;;;;;;;5114532;28;20236;-85
2024/01/13 13:25:05;;;;;;;41.07;16.60;;;;;;;;;;5115010;28;20250;-86
2024/01/13 13:27:32;;;;;;;36.67;16.60;;;;;;;;;;5114719;28;20198;-85
2024/01/13 13:30:00;;;;;;;38.93;15.17;;;;;;;;;;5114412;28;20193;-85
2024/01/13 13:32:29;;;;;;;38.47;16.13;;;;;;;;;;5114502;28;20201;-86
2024/01/13 13:34:56;;;;;;;36.80;15.57;;;;;;;;;;5114066;28;20232;-85
2024/01/13 13:37:23;;;;;;;39.97;15.33;;;;;;;;;;5114656;28;20556;-85
2024/01/13 13:39:50;;;;;;;41.77;16.57;;;;;;;;;;5114034;28;20721;-86
2024/01/13 13:42:18;;;;;;;41.60;16.43;;;;;;;;;;5114348;28;20228;-85
2024/01/13 13:44:45;;;;;;;41.37;16.50;;;;;;;;;;5114217;27;20295;-86
2024/01/13 13:47:12;;;;;;;41.37;16.47;;;;;;;;;;5114570;28;20234;-86
2024/01/13 13:49:41;;;;;;;40.63;16.47;;;;;;;;;;5113857;27;20260;-86
2024/01/13 13:52:08;;;;;;;46.50;18.33;;;;;;;;;;5114849;28;20630;-86
2024/01/13 13:54:35;;;;;;;45.13;17.70;;;;;;;;;;5113986;28;21052;-86
2024/01/13 13:57:03;;;;;;;44.17;17.87;;;;;;;;;;5114468;28;20233;-86
2024/01/13 13:59:30;;;;;;;53.43;23.87;;;;;;;;;;5114327;28;20614;-86
2024/01/13 14:01:57;;;;;;;46.20;17.73;;;;;;;;;;5113783;28;20280;-85
2024/01/13 14:04:24;;;;;;;48.20;18.83;;;;;;;;;;5113314;28;20246;-85
2024/01/13 14:06:53;;;;;;;46.73;18.77;;;;;;;;;;5114213;28;20231;-86
2024/01/13 14:09:20;;;;;;;54.67;23.90;;;;;;;;;;5114219;28;20221;-86
2024/01/13 14:11:48;;;;;;;55.23;23.53;;;;;;;;;;5113804;28;20665;-86
2024/01/13 14:14:15;;;;;;;45.03;18.50;;;;;;;;;;5113755;28;20233;-87
2024/01/13 14:16:42;;;;;;;44.97;18.07;;;;;;;;;;5113735;28;20728;-84
2024/01/13 14:19:09;;;;;;;51.20;19.10;;;;;;;;;;5113692;28;20296;-86
2024/01/13 14:21:36;;;;;;;48.80;19.70;;;;;;;;;;5113691;28;20235;-86
2024/01/13 14:24:06;;;;;;;70.87;35.57;;;;;;;;;;5113807;28;20205;-85